sensor_id;sensor_type;location;lat;lon;timestamp;temperature;humidity
3548;DHT22;1788;49.400;11.092;2023-05-29T00:00:37;18.10;42.50
3548;DHT22;1788;49.400;11.092;2023-05-29T00:03:04;18.10;42.60
3548;DHT22;1788;49.400;11.092;2023-05-29T00:05:31;18.00;43.20
3548;DHT22;1788;49.400;11.092;2023-05-29T00:07:59;18.00;42.90
3548;DHT22;1788;49.400;11.092;2023-05-29T00:10:25;18.00;42.90
3548;DHT22;1788;49.400;11.092;2023-05-29T00:12:52;18.00;43.00
3548;DHT22;1788;49.400;11.092;2023-05-29T00:15:18;17.90;43.10
3548;DHT22;1788;49.400;11.092;2023-05-29T00:17:45;17.90;43.10
3548;DHT22;1788;49.400;11.092;2023-05-29T00:20:12;17.80;43.30
3548;DHT22;1788;49.400;11.092;2023-05-29T00:22:40;17.70;43.20
3548;DHT22;1788;49.400;11.092;2023-05-29T00:25:07;17.70;43.30
3548;DHT22;1788;49.400;11.092;2023-05-29T00:27:33;17.60;43.40
3548;DHT22;1788;49.400;11.092;2023-05-29T00:30:00;17.60;43.50
3548;DHT22;1788;49.400;11.092;2023-05-29T00:32:26;17.50;43.60
3548;DHT22;1788;49.400;11.092;2023-05-29T00:34:53;17.50;43.80
3548;DHT22;1788;49.400;11.092;2023-05-29T00:37:20;17.40;44.00
3548;DHT22;1788;49.400;11.092;2023-05-29T00:39:47;17.40;43.90
3548;DHT22;1788;49.400;11.092;2023-05-29T00:42:15;17.30;44.20
3548;DHT22;1788;49.400;11.092;2023-05-29T00:44:41;17.20;44.10
3548;DHT22;1788;49.400;11.092;2023-05-29T00:47:08;17.20;44.20
3548;DHT22;1788;49.400;11.092;2023-05-29T00:49:35;17.20;44.30
3548;DHT22;1788;49.400;11.092;2023-05-29T00:52:01;17.10;44.30
3548;DHT22;1788;49.400;11.092;2023-05-29T00:54:29;17.00;44.50
3548;DHT22;1788;49.400;11.092;2023-05-29T00:59:23;16.90;45.10
3548;DHT22;1788;49.400;11.092;2023-05-29T01:01:49;16.90;44.60
3548;DHT22;1788;49.400;11.092;2023-05-29T01:04:16;16.80;44.60
3548;DHT22;1788;49.400;11.092;2023-05-29T01:06:43;16.80;44.70
3548;DHT22;1788;49.400;11.092;2023-05-29T01:09:09;16.70;44.80
3548;DHT22;1788;49.400;11.092;2023-05-29T01:14:04;16.60;44.90
3548;DHT22;1788;49.400;11.092;2023-05-29T01:18:57;16.50;45.10
3548;DHT22;1788;49.400;11.092;2023-05-29T01:26:21;16.40;45.40
3548;DHT22;1788;49.400;11.092;2023-05-29T01:31:10;16.30;45.50
3548;DHT22;1788;49.400;11.092;2023-05-29T01:36:03;16.20;45.70
3548;DHT22;1788;49.400;11.092;2023-05-29T01:38:30;16.20;45.80
3548;DHT22;1788;49.400;11.092;2023-05-29T01:40:57;16.20;45.90
3548;DHT22;1788;49.400;11.092;2023-05-29T01:43:25;16.10;46.00
3548;DHT22;1788;49.400;11.092;2023-05-29T01:45:51;16.00;45.90
3548;DHT22;1788;49.400;11.092;2023-05-29T01:48:19;16.00;46.10
3548;DHT22;1788;49.400;11.092;2023-05-29T01:50:45;16.00;46.10
3548;DHT22;1788;49.400;11.092;2023-05-29T01:53:13;15.90;46.30
3548;DHT22;1788;49.400;11.092;2023-05-29T01:55:39;15.90;46.20
3548;DHT22;1788;49.400;11.092;2023-05-29T01:58:07;15.80;46.90
3548;DHT22;1788;49.400;11.092;2023-05-29T02:00:34;15.80;46.40
3548;DHT22;1788;49.400;11.092;2023-05-29T02:03:01;15.80;46.40
3548;DHT22;1788;49.400;11.092;2023-05-29T02:05:28;15.80;46.50
3548;DHT22;1788;49.400;11.092;2023-05-29T02:07:55;15.70;46.60
3548;DHT22;1788;49.400;11.092;2023-05-29T02:10:22;15.70;46.60
3548;DHT22;1788;49.400;11.092;2023-05-29T02:12:49;15.70;46.80
3548;DHT22;1788;49.400;11.092;2023-05-29T02:15:16;15.60;46.70
3548;DHT22;1788;49.400;11.092;2023-05-29T02:17:43;15.60;46.80
3548;DHT22;1788;49.400;11.092;2023-05-29T02:20:10;15.50;46.80
3548;DHT22;1788;49.400;11.092;2023-05-29T02:22:37;15.50;46.80
3548;DHT22;1788;49.400;11.092;2023-05-29T02:25:03;15.50;47.00
3548;DHT22;1788;49.400;11.092;2023-05-29T02:27:30;15.40;46.90
3548;DHT22;1788;49.400;11.092;2023-05-29T02:29:57;15.40;47.10
3548;DHT22;1788;49.400;11.092;2023-05-29T02:32:24;15.40;47.10
3548;DHT22;1788;49.400;11.092;2023-05-29T02:34:53;15.30;47.10
3548;DHT22;1788;49.400;11.092;2023-05-29T02:37:19;15.30;47.20
3548;DHT22;1788;49.400;11.092;2023-05-29T02:39:46;15.30;47.30
3548;DHT22;1788;49.400;11.092;2023-05-29T02:42:12;15.20;47.30
3548;DHT22;1788;49.400;11.092;2023-05-29T02:44:39;15.20;47.40
3548;DHT22;1788;49.400;11.092;2023-05-29T02:47:05;15.20;47.50
3548;DHT22;1788;49.400;11.092;2023-05-29T02:49:32;15.10;47.50
3548;DHT22;1788;49.400;11.092;2023-05-29T02:51:59;15.10;47.60
3548;DHT22;1788;49.400;11.092;2023-05-29T02:54:26;15.10;47.60
3548;DHT22;1788;49.400;11.092;2023-05-29T02:56:53;15.00;47.70
3548;DHT22;1788;49.400;11.092;2023-05-29T02:59:19;15.00;47.80
3548;DHT22;1788;49.400;11.092;2023-05-29T03:01:46;15.00;47.80
3548;DHT22;1788;49.400;11.092;2023-05-29T03:04:12;14.90;47.90
3548;DHT22;1788;49.400;11.092;2023-05-29T03:06:40;14.90;48.10
3548;DHT22;1788;49.400;11.092;2023-05-29T03:09:07;14.80;48.00
3548;DHT22;1788;49.400;11.092;2023-05-29T03:11:34;14.90;48.10
3548;DHT22;1788;49.400;11.092;2023-05-29T03:14:01;14.80;48.10
3548;DHT22;1788;49.400;11.092;2023-05-29T03:16:27;14.80;48.30
3548;DHT22;1788;49.400;11.092;2023-05-29T03:18:54;14.80;48.30
3548;DHT22;1788;49.400;11.092;2023-05-29T03:21:21;14.80;48.40
3548;DHT22;1788;49.400;11.092;2023-05-29T03:23:47;14.70;48.40
3548;DHT22;1788;49.400;11.092;2023-05-29T03:26:14;14.70;48.40
3548;DHT22;1788;49.400;11.092;2023-05-29T03:28:41;14.60;48.50
3548;DHT22;1788;49.400;11.092;2023-05-29T03:31:08;14.60;48.50
3548;DHT22;1788;49.400;11.092;2023-05-29T03:33:35;14.60;48.70
3548;DHT22;1788;49.400;11.092;2023-05-29T03:36:01;14.50;48.70
3548;DHT22;1788;49.400;11.092;2023-05-29T03:38:28;14.50;48.80
3548;DHT22;1788;49.400;11.092;2023-05-29T03:40:55;14.40;48.80
3548;DHT22;1788;49.400;11.092;2023-05-29T03:43:21;14.40;48.90
3548;DHT22;1788;49.400;11.092;2023-05-29T03:45:49;14.30;49.10
3548;DHT22;1788;49.400;11.092;2023-05-29T03:48:16;14.30;49.10
3548;DHT22;1788;49.400;11.092;2023-05-29T03:50:44;14.30;49.20
3548;DHT22;1788;49.400;11.092;2023-05-29T03:53:10;14.20;49.10
3548;DHT22;1788;49.400;11.092;2023-05-29T03:55:38;14.20;49.30
3548;DHT22;1788;49.400;11.092;2023-05-29T03:58:05;14.20;49.30
3548;DHT22;1788;49.400;11.092;2023-05-29T04:00:31;14.20;49.30
3548;DHT22;1788;49.400;11.092;2023-05-29T04:02:58;14.20;49.40
3548;DHT22;1788;49.400;11.092;2023-05-29T04:05:24;14.20;49.40
3548;DHT22;1788;49.400;11.092;2023-05-29T04:07:52;14.20;49.50
3548;DHT22;1788;49.400;11.092;2023-05-29T04:10:18;14.20;49.50
3548;DHT22;1788;49.400;11.092;2023-05-29T04:12:45;14.20;49.60
3548;DHT22;1788;49.400;11.092;2023-05-29T04:15:12;14.20;49.70
3548;DHT22;1788;49.400;11.092;2023-05-29T04:17:39;14.20;49.70
3548;DHT22;1788;49.400;11.092;2023-05-29T04:20:06;14.30;49.90
3548;DHT22;1788;49.400;11.092;2023-05-29T04:22:33;14.30;49.90
3548;DHT22;1788;49.400;11.092;2023-05-29T04:25:00;14.30;49.90
3548;DHT22;1788;49.400;11.092;2023-05-29T04:27:27;14.30;49.90
3548;DHT22;1788;49.400;11.092;2023-05-29T04:29:53;14.40;50.00
3548;DHT22;1788;49.400;11.092;2023-05-29T04:32:20;14.40;50.10
3548;DHT22;1788;49.400;11.092;2023-05-29T04:34:46;14.40;50.10
3548;DHT22;1788;49.400;11.092;2023-05-29T04:37:13;14.50;50.20
3548;DHT22;1788;49.400;11.092;2023-05-29T04:39:40;14.60;50.30
3548;DHT22;1788;49.400;11.092;2023-05-29T04:42:07;14.50;50.30
3548;DHT22;1788;49.400;11.092;2023-05-29T04:44:34;14.70;50.50
3548;DHT22;1788;49.400;11.092;2023-05-29T04:47:02;14.60;50.40
3548;DHT22;1788;49.400;11.092;2023-05-29T04:49:30;14.70;50.50
3548;DHT22;1788;49.400;11.092;2023-05-29T04:51:56;14.80;50.60
3548;DHT22;1788;49.400;11.092;2023-05-29T04:54:23;14.90;50.70
3548;DHT22;1788;49.400;11.092;2023-05-29T04:56:50;14.90;50.70
3548;DHT22;1788;49.400;11.092;2023-05-29T04:59:17;15.00;50.80
3548;DHT22;1788;49.400;11.092;2023-05-29T05:01:44;15.10;50.90
3548;DHT22;1788;49.400;11.092;2023-05-29T05:04:10;15.20;50.90
3548;DHT22;1788;49.400;11.092;2023-05-29T05:06:37;15.30;51.00
3548;DHT22;1788;49.400;11.092;2023-05-29T05:09:05;15.60;51.20
3548;DHT22;1788;49.400;11.092;2023-05-29T05:11:31;15.50;51.10
3548;DHT22;1788;49.400;11.092;2023-05-29T05:13:58;15.70;51.20
3548;DHT22;1788;49.400;11.092;2023-05-29T05:16:24;15.80;51.20
3548;DHT22;1788;49.400;11.092;2023-05-29T05:18:51;16.00;51.30
3548;DHT22;1788;49.400;11.092;2023-05-29T05:21:19;16.20;51.70
3548;DHT22;1788;49.400;11.092;2023-05-29T05:23:46;16.20;51.30
3548;DHT22;1788;49.400;11.092;2023-05-29T05:26:12;16.40;51.30
3548;DHT22;1788;49.400;11.092;2023-05-29T05:28:39;16.50;51.20
3548;DHT22;1788;49.400;11.092;2023-05-29T05:31:06;16.70;51.30
3548;DHT22;1788;49.400;11.092;2023-05-29T05:33:33;16.80;51.20
3548;DHT22;1788;49.400;11.092;2023-05-29T05:36:01;17.10;50.50
3548;DHT22;1788;49.400;11.092;2023-05-29T05:38:28;17.10;50.90
3548;DHT22;1788;49.400;11.092;2023-05-29T05:40:54;17.20;50.80
3548;DHT22;1788;49.400;11.092;2023-05-29T05:43:21;17.40;50.60
3548;DHT22;1788;49.400;11.092;2023-05-29T05:45:47;17.50;50.40
3548;DHT22;1788;49.400;11.092;2023-05-29T05:48:14;17.60;50.20
3548;DHT22;1788;49.400;11.092;2023-05-29T05:50:41;17.70;50.50
3548;DHT22;1788;49.400;11.092;2023-05-29T05:53:07;17.90;49.80
3548;DHT22;1788;49.400;11.092;2023-05-29T05:55:35;18.00;49.50
3548;DHT22;1788;49.400;11.092;2023-05-29T05:58:02;18.30;49.20
3548;DHT22;1788;49.400;11.092;2023-05-29T06:00:29;18.20;49.10
3548;DHT22;1788;49.400;11.092;2023-05-29T06:02:56;18.50;48.70
3548;DHT22;1788;49.400;11.092;2023-05-29T06:05:25;18.50;48.60
3548;DHT22;1788;49.400;11.092;2023-05-29T06:07:51;18.60;48.40
3548;DHT22;1788;49.400;11.092;2023-05-29T06:10:18;18.70;48.10
3548;DHT22;1788;49.400;11.092;2023-05-29T06:12:44;18.80;47.80
3548;DHT22;1788;49.400;11.092;2023-05-29T06:15:11;18.90;47.60
3548;DHT22;1788;49.400;11.092;2023-05-29T06:17:40;19.10;47.90
3548;DHT22;1788;49.400;11.092;2023-05-29T06:20:07;19.20;47.10
3548;DHT22;1788;49.400;11.092;2023-05-29T06:22:33;19.30;46.90
3548;DHT22;1788;49.400;11.092;2023-05-29T06:25:02;19.40;46.70
3548;DHT22;1788;49.400;11.092;2023-05-29T06:27:30;19.70;46.40
3548;DHT22;1788;49.400;11.092;2023-05-29T06:29:57;19.60;46.30
3548;DHT22;1788;49.400;11.092;2023-05-29T06:32:23;19.80;46.20
3548;DHT22;1788;49.400;11.092;2023-05-29T06:34:50;19.90;46.00
3548;DHT22;1788;49.400;11.092;2023-05-29T06:37:17;20.00;45.80
3548;DHT22;1788;49.400;11.092;2023-05-29T06:39:44;20.20;45.70
3548;DHT22;1788;49.400;11.092;2023-05-29T06:42:10;20.30;45.40
3548;DHT22;1788;49.400;11.092;2023-05-29T06:44:38;20.40;45.20
3548;DHT22;1788;49.400;11.092;2023-05-29T06:47:05;20.50;44.90
3548;DHT22;1788;49.400;11.092;2023-05-29T06:49:31;20.60;44.70
3548;DHT22;1788;49.400;11.092;2023-05-29T06:51:59;20.70;44.60
3548;DHT22;1788;49.400;11.092;2023-05-29T06:54:25;20.80;44.40
3548;DHT22;1788;49.400;11.092;2023-05-29T06:56:52;21.00;44.30
3548;DHT22;1788;49.400;11.092;2023-05-29T06:59:19;21.20;44.10
3548;DHT22;1788;49.400;11.092;2023-05-29T07:01:46;21.30;43.90
3548;DHT22;1788;49.400;11.092;2023-05-29T07:04:13;21.60;43.50
3548;DHT22;1788;49.400;11.092;2023-05-29T07:06:40;21.50;43.40
3548;DHT22;1788;49.400;11.092;2023-05-29T07:09:07;21.70;43.20
3548;DHT22;1788;49.400;11.092;2023-05-29T07:11:33;21.90;43.00
3548;DHT22;1788;49.400;11.092;2023-05-29T07:14:00;22.00;42.70
3548;DHT22;1788;49.400;11.092;2023-05-29T07:16:27;22.10;42.40
3548;DHT22;1788;49.400;11.092;2023-05-29T07:18:54;22.20;42.20
3548;DHT22;1788;49.400;11.092;2023-05-29T07:21:21;22.30;42.10
3548;DHT22;1788;49.400;11.092;2023-05-29T07:23:48;22.40;42.50
3548;DHT22;1788;49.400;11.092;2023-05-29T07:26:16;22.70;41.50
3548;DHT22;1788;49.400;11.092;2023-05-29T07:28:42;22.70;41.50
3548;DHT22;1788;49.400;11.092;2023-05-29T07:31:10;22.90;41.40
3548;DHT22;1788;49.400;11.092;2023-05-29T07:33:39;22.90;40.90
3548;DHT22;1788;49.400;11.092;2023-05-29T07:36:05;23.00;40.80
3548;DHT22;1788;49.400;11.092;2023-05-29T07:38:32;23.10;40.50
3548;DHT22;1788;49.400;11.092;2023-05-29T07:41:00;23.20;40.30
3548;DHT22;1788;49.400;11.092;2023-05-29T07:43:27;23.20;40.20
3548;DHT22;1788;49.400;11.092;2023-05-29T07:45:54;23.50;40.00
3548;DHT22;1788;49.400;11.092;2023-05-29T07:48:21;23.40;39.90
3548;DHT22;1788;49.400;11.092;2023-05-29T07:50:48;23.60;39.80
3548;DHT22;1788;49.400;11.092;2023-05-29T07:53:14;23.60;39.50
3548;DHT22;1788;49.400;11.092;2023-05-29T07:55:41;23.70;39.20
3548;DHT22;1788;49.400;11.092;2023-05-29T07:58:08;23.90;38.70
3548;DHT22;1788;49.400;11.092;2023-05-29T08:00:35;23.80;38.60
3548;DHT22;1788;49.400;11.092;2023-05-29T08:03:04;24.00;38.10
3548;DHT22;1788;49.400;11.092;2023-05-29T08:05:31;24.00;38.10
3548;DHT22;1788;49.400;11.092;2023-05-29T08:07:58;24.10;37.60
3548;DHT22;1788;49.400;11.092;2023-05-29T08:10:25;24.10;37.50
3548;DHT22;1788;49.400;11.092;2023-05-29T08:12:52;24.20;37.10
3548;DHT22;1788;49.400;11.092;2023-05-29T08:15:19;24.20;37.10
3548;DHT22;1788;49.400;11.092;2023-05-29T08:17:45;24.30;36.80
3548;DHT22;1788;49.400;11.092;2023-05-29T08:20:12;24.40;36.50
3548;DHT22;1788;49.400;11.092;2023-05-29T08:22:38;24.40;36.00
3548;DHT22;1788;49.400;11.092;2023-05-29T08:25:06;24.50;35.80
3548;DHT22;1788;49.400;11.092;2023-05-29T08:27:32;24.40;35.60
3548;DHT22;1788;49.400;11.092;2023-05-29T08:30:00;24.50;35.30
3548;DHT22;1788;49.400;11.092;2023-05-29T08:32:26;24.50;35.30
3548;DHT22;1788;49.400;11.092;2023-05-29T08:34:54;24.60;35.10
3548;DHT22;1788;49.400;11.092;2023-05-29T08:37:20;24.70;35.10
3548;DHT22;1788;49.400;11.092;2023-05-29T08:39:47;24.80;34.90
3548;DHT22;1788;49.400;11.092;2023-05-29T08:42:18;24.80;34.60
3548;DHT22;1788;49.400;11.092;2023-05-29T08:44:40;24.90;34.40
3548;DHT22;1788;49.400;11.092;2023-05-29T08:47:08;25.10;34.20
3548;DHT22;1788;49.400;11.092;2023-05-29T08:52:02;25.10;33.90
3548;DHT22;1788;49.400;11.092;2023-05-29T08:54:30;25.20;34.00
3548;DHT22;1788;49.400;11.092;2023-05-29T08:56:55;25.30;33.90
3548;DHT22;1788;49.400;11.092;2023-05-29T08:59:23;25.60;33.60
3548;DHT22;1788;49.400;11.092;2023-05-29T09:01:50;25.50;33.50
3548;DHT22;1788;49.400;11.092;2023-05-29T09:04:16;25.70;33.60
3548;DHT22;1788;49.400;11.092;2023-05-29T09:06:44;25.80;33.40
3548;DHT22;1788;49.400;11.092;2023-05-29T09:09:10;25.80;33.10
3548;DHT22;1788;49.400;11.092;2023-05-29T09:11:36;25.90;32.90
3548;DHT22;1788;49.400;11.092;2023-05-29T09:14:03;25.90;32.60
3548;DHT22;1788;49.400;11.092;2023-05-29T09:16:30;26.00;32.40
3548;DHT22;1788;49.400;11.092;2023-05-29T09:19:04;26.00;32.20
3548;DHT22;1788;49.400;11.092;2023-05-29T09:23:51;26.00;31.70
3548;DHT22;1788;49.400;11.092;2023-05-29T09:26:18;26.20;31.60
3548;DHT22;1788;49.400;11.092;2023-05-29T09:28:45;26.10;31.50
3548;DHT22;1788;49.400;11.092;2023-05-29T09:33:46;26.20;31.10
3548;DHT22;1788;49.400;11.092;2023-05-29T09:36:04;26.30;31.00
3548;DHT22;1788;49.400;11.092;2023-05-29T09:38:32;26.50;30.90
3548;DHT22;1788;49.400;11.092;2023-05-29T09:41:03;26.40;30.80
3548;DHT22;1788;49.400;11.092;2023-05-29T09:43:25;26.60;30.70
3548;DHT22;1788;49.400;11.092;2023-05-29T09:45:51;26.60;30.50
3548;DHT22;1788;49.400;11.092;2023-05-29T09:48:22;26.70;30.30
3548;DHT22;1788;49.400;11.092;2023-05-29T09:50:45;26.70;30.20
3548;DHT22;1788;49.400;11.092;2023-05-29T09:55:40;26.90;30.00
3548;DHT22;1788;49.400;11.092;2023-05-29T09:58:08;26.90;30.00
3548;DHT22;1788;49.400;11.092;2023-05-29T10:00:34;27.00;29.90
3548;DHT22;1788;49.400;11.092;2023-05-29T10:03:01;27.10;29.70
3548;DHT22;1788;49.400;11.092;2023-05-29T10:05:28;27.30;29.60
3548;DHT22;1788;49.400;11.092;2023-05-29T10:07:56;27.30;29.40
3548;DHT22;1788;49.400;11.092;2023-05-29T10:10:23;27.50;29.40
3548;DHT22;1788;49.400;11.092;2023-05-29T10:12:50;27.60;29.20
3548;DHT22;1788;49.400;11.092;2023-05-29T10:15:18;27.60;29.10
3548;DHT22;1788;49.400;11.092;2023-05-29T10:20:12;27.80;29.00
3548;DHT22;1788;49.400;11.092;2023-05-29T10:22:40;28.10;28.70
3548;DHT22;1788;49.400;11.092;2023-05-29T10:25:09;28.00;28.60
3548;DHT22;1788;49.400;11.092;2023-05-29T10:27:34;28.10;28.50
3548;DHT22;1788;49.400;11.092;2023-05-29T10:30:03;28.20;28.30
3548;DHT22;1788;49.400;11.092;2023-05-29T10:39:49;28.40;27.70
3548;DHT22;1788;49.400;11.092;2023-05-29T10:44:43;28.50;27.50
3548;DHT22;1788;49.400;11.092;2023-05-29T10:47:10;28.80;27.10
3548;DHT22;1788;49.400;11.092;2023-05-29T10:49:37;28.70;27.00
3548;DHT22;1788;49.400;11.092;2023-05-29T10:52:06;29.00;26.70
3548;DHT22;1788;49.400;11.092;2023-05-29T10:54:40;28.90;26.70
3548;DHT22;1788;49.400;11.092;2023-05-29T10:57:01;29.00;26.40
3548;DHT22;1788;49.400;11.092;2023-05-29T10:59:27;29.00;26.20
3548;DHT22;1788;49.400;11.092;2023-05-29T11:01:54;29.00;25.90
3548;DHT22;1788;49.400;11.092;2023-05-29T11:04:27;29.10;25.90
3548;DHT22;1788;49.400;11.092;2023-05-29T11:06:47;29.10;25.70
3548;DHT22;1788;49.400;11.092;2023-05-29T11:11:42;29.30;25.50
3548;DHT22;1788;49.400;11.092;2023-05-29T11:14:09;29.50;25.50
3548;DHT22;1788;49.400;11.092;2023-05-29T11:16:36;29.50;25.40
3548;DHT22;1788;49.400;11.092;2023-05-29T11:26:26;29.70;24.90
3548;DHT22;1788;49.400;11.092;2023-05-29T11:28:52;29.70;24.80
3548;DHT22;1788;49.400;11.092;2023-05-29T11:31:19;29.70;25.00
3548;DHT22;1788;49.400;11.092;2023-05-29T11:36:13;29.80;24.60
3548;DHT22;1788;49.400;11.092;2023-05-29T11:38:41;30.00;24.70
3548;DHT22;1788;49.400;11.092;2023-05-29T11:41:08;29.90;24.60
3548;DHT22;1788;49.400;11.092;2023-05-29T11:43:35;30.00;24.60
3548;DHT22;1788;49.400;11.092;2023-05-29T11:46:02;30.00;24.50
3548;DHT22;1788;49.400;11.092;2023-05-29T11:48:28;30.00;24.40
3548;DHT22;1788;49.400;11.092;2023-05-29T11:50:55;30.10;24.40
3548;DHT22;1788;49.400;11.092;2023-05-29T11:53:21;30.10;24.40
3548;DHT22;1788;49.400;11.092;2023-05-29T11:55:48;30.20;24.30
3548;DHT22;1788;49.400;11.092;2023-05-29T11:58:14;30.20;24.20
3548;DHT22;1788;49.400;11.092;2023-05-29T12:00:41;30.20;24.10
3548;DHT22;1788;49.400;11.092;2023-05-29T12:03:08;30.20;24.00
3548;DHT22;1788;49.400;11.092;2023-05-29T12:08:03;30.30;24.20
3548;DHT22;1788;49.400;11.092;2023-05-29T12:10:30;30.40;24.10
3548;DHT22;1788;49.400;11.092;2023-05-29T12:12:57;30.40;24.10
3548;DHT22;1788;49.400;11.092;2023-05-29T12:15:23;30.50;24.10
3548;DHT22;1788;49.400;11.092;2023-05-29T12:17:50;30.60;24.00
3548;DHT22;1788;49.400;11.092;2023-05-29T12:20:16;30.70;24.00
3548;DHT22;1788;49.400;11.092;2023-05-29T12:22:43;30.80;23.80
3548;DHT22;1788;49.400;11.092;2023-05-29T12:25:10;30.90;23.80
3548;DHT22;1788;49.400;11.092;2023-05-29T12:27:37;31.00;23.80
3548;DHT22;1788;49.400;11.092;2023-05-29T12:30:03;31.00;23.80
3548;DHT22;1788;49.400;11.092;2023-05-29T12:34:57;31.30;23.70
3548;DHT22;1788;49.400;11.092;2023-05-29T12:37:24;31.50;23.60
3548;DHT22;1788;49.400;11.092;2023-05-29T12:42:17;31.80;23.20
3548;DHT22;1788;49.400;11.092;2023-05-29T12:44:45;31.90;23.10
3548;DHT22;1788;49.400;11.092;2023-05-29T12:47:13;32.00;23.00
3548;DHT22;1788;49.400;11.092;2023-05-29T12:49:39;32.20;23.10
3548;DHT22;1788;49.400;11.092;2023-05-29T12:52:05;32.10;23.10
3548;DHT22;1788;49.400;11.092;2023-05-29T12:54:33;32.30;23.10
3548;DHT22;1788;49.400;11.092;2023-05-29T12:56:59;32.30;23.00
3548;DHT22;1788;49.400;11.092;2023-05-29T12:59:26;32.30;22.90
3548;DHT22;1788;49.400;11.092;2023-05-29T13:01:53;32.30;22.80
3548;DHT22;1788;49.400;11.092;2023-05-29T13:04:20;32.30;22.60
3548;DHT22;1788;49.400;11.092;2023-05-29T13:06:46;32.40;22.60
3548;DHT22;1788;49.400;11.092;2023-05-29T13:09:13;32.50;22.60
3548;DHT22;1788;49.400;11.092;2023-05-29T13:11:40;32.60;22.50
3548;DHT22;1788;49.400;11.092;2023-05-29T13:14:06;32.50;22.50
3548;DHT22;1788;49.400;11.092;2023-05-29T13:16:33;32.40;22.50
3548;DHT22;1788;49.400;11.092;2023-05-29T13:19:01;32.40;22.50
3548;DHT22;1788;49.400;11.092;2023-05-29T13:21:27;32.30;22.50
3548;DHT22;1788;49.400;11.092;2023-05-29T13:23:54;32.30;22.50
3548;DHT22;1788;49.400;11.092;2023-05-29T13:26:20;32.20;22.50
3548;DHT22;1788;49.400;11.092;2023-05-29T13:28:47;31.90;22.60
3548;DHT22;1788;49.400;11.092;2023-05-29T13:31:14;31.80;22.80
3548;DHT22;1788;49.400;11.092;2023-05-29T13:33:42;31.80;22.80
3548;DHT22;1788;49.400;11.092;2023-05-29T13:36:10;31.70;22.80
3548;DHT22;1788;49.400;11.092;2023-05-29T13:38:37;31.70;22.80
3548;DHT22;1788;49.400;11.092;2023-05-29T13:41:05;31.70;22.70
3548;DHT22;1788;49.400;11.092;2023-05-29T13:43:31;31.70;22.90
3548;DHT22;1788;49.400;11.092;2023-05-29T13:45:58;31.80;22.90
3548;DHT22;1788;49.400;11.092;2023-05-29T13:48:25;31.80;22.90
3548;DHT22;1788;49.400;11.092;2023-05-29T13:50:51;31.70;22.90
3548;DHT22;1788;49.400;11.092;2023-05-29T13:53:19;31.70;22.80
3548;DHT22;1788;49.400;11.092;2023-05-29T13:55:46;31.70;22.80
3548;DHT22;1788;49.400;11.092;2023-05-29T13:58:14;31.70;23.30
3548;DHT22;1788;49.400;11.092;2023-05-29T14:00:40;31.60;22.80
3548;DHT22;1788;49.400;11.092;2023-05-29T14:03:08;31.60;22.80
3548;DHT22;1788;49.400;11.092;2023-05-29T14:05:34;31.50;22.70
3548;DHT22;1788;49.400;11.092;2023-05-29T14:08:01;31.50;22.80
3548;DHT22;1788;49.400;11.092;2023-05-29T14:10:28;31.50;22.80
3548;DHT22;1788;49.400;11.092;2023-05-29T14:12:55;31.40;22.80
3548;DHT22;1788;49.400;11.092;2023-05-29T14:15:22;31.30;22.70
3548;DHT22;1788;49.400;11.092;2023-05-29T14:17:48;31.20;22.80
3548;DHT22;1788;49.400;11.092;2023-05-29T14:20:15;31.10;23.40
3548;DHT22;1788;49.400;11.092;2023-05-29T14:22:42;31.00;23.00
3548;DHT22;1788;49.400;11.092;2023-05-29T14:25:09;30.90;23.10
3548;DHT22;1788;49.400;11.092;2023-05-29T14:27:36;30.90;23.20
3548;DHT22;1788;49.400;11.092;2023-05-29T14:30:03;30.70;23.20
3548;DHT22;1788;49.400;11.092;2023-05-29T14:32:30;30.80;23.30
3548;DHT22;1788;49.400;11.092;2023-05-29T14:34:56;30.70;23.30
3548;DHT22;1788;49.400;11.092;2023-05-29T14:37:23;30.70;23.30
3548;DHT22;1788;49.400;11.092;2023-05-29T14:39:50;30.50;23.20
3548;DHT22;1788;49.400;11.092;2023-05-29T14:42:17;30.50;23.20
3548;DHT22;1788;49.400;11.092;2023-05-29T14:44:43;30.50;23.10
3548;DHT22;1788;49.400;11.092;2023-05-29T14:47:10;30.50;23.10
3548;DHT22;1788;49.400;11.092;2023-05-29T14:49:37;30.60;23.10
3548;DHT22;1788;49.400;11.092;2023-05-29T14:52:03;30.60;23.00
3548;DHT22;1788;49.400;11.092;2023-05-29T14:54:30;30.60;22.90
3548;DHT22;1788;49.400;11.092;2023-05-29T14:56:57;30.60;22.90
3548;DHT22;1788;49.400;11.092;2023-05-29T14:59:24;30.50;22.90
3548;DHT22;1788;49.400;11.092;2023-05-29T15:01:50;30.50;22.80
3548;DHT22;1788;49.400;11.092;2023-05-29T15:04:17;30.50;22.80
3548;DHT22;1788;49.400;11.092;2023-05-29T15:06:45;30.40;22.80
3548;DHT22;1788;49.400;11.092;2023-05-29T15:09:12;30.40;22.80
3548;DHT22;1788;49.400;11.092;2023-05-29T15:11:39;30.40;22.90
3548;DHT22;1788;49.400;11.092;2023-05-29T15:14:05;30.40;23.00
3548;DHT22;1788;49.400;11.092;2023-05-29T15:16:32;30.30;23.10
3548;DHT22;1788;49.400;11.092;2023-05-29T15:18:59;30.30;23.10
3548;DHT22;1788;49.400;11.092;2023-05-29T15:21:27;30.30;22.70
3548;DHT22;1788;49.400;11.092;2023-05-29T15:23:54;30.30;23.10
3548;DHT22;1788;49.400;11.092;2023-05-29T15:26:22;30.30;23.00
3548;DHT22;1788;49.400;11.092;2023-05-29T15:28:49;30.30;23.00
3548;DHT22;1788;49.400;11.092;2023-05-29T15:31:16;30.30;23.00
3548;DHT22;1788;49.400;11.092;2023-05-29T15:33:42;30.30;23.00
3548;DHT22;1788;49.400;11.092;2023-05-29T15:36:10;30.20;23.00
3548;DHT22;1788;49.400;11.092;2023-05-29T15:38:37;30.20;23.50
3548;DHT22;1788;49.400;11.092;2023-05-29T15:41:04;30.10;23.00
3548;DHT22;1788;49.400;11.092;2023-05-29T15:43:31;30.10;23.40
3548;DHT22;1788;49.400;11.092;2023-05-29T15:45:58;30.10;23.00
3548;DHT22;1788;49.400;11.092;2023-05-29T15:48:24;30.10;23.10
3548;DHT22;1788;49.400;11.092;2023-05-29T15:50:51;30.10;23.20
3548;DHT22;1788;49.400;11.092;2023-05-29T15:53:18;30.10;23.20
3548;DHT22;1788;49.400;11.092;2023-05-29T15:55:45;29.90;23.10
3548;DHT22;1788;49.400;11.092;2023-05-29T15:58:11;29.90;23.20
3548;DHT22;1788;49.400;11.092;2023-05-29T16:00:38;29.90;23.20
3548;DHT22;1788;49.400;11.092;2023-05-29T16:03:05;29.80;23.20
3548;DHT22;1788;49.400;11.092;2023-05-29T16:05:33;29.80;23.20
3548;DHT22;1788;49.400;11.092;2023-05-29T16:07:59;29.70;23.20
3548;DHT22;1788;49.400;11.092;2023-05-29T16:10:26;29.60;23.50
3548;DHT22;1788;49.400;11.092;2023-05-29T16:12:53;29.60;23.40
3548;DHT22;1788;49.400;11.092;2023-05-29T16:15:20;29.60;23.50
3548;DHT22;1788;49.400;11.092;2023-05-29T16:17:46;29.50;23.40
3548;DHT22;1788;49.400;11.092;2023-05-29T16:20:14;29.50;23.40
3548;DHT22;1788;49.400;11.092;2023-05-29T16:22:40;29.40;23.40
3548;DHT22;1788;49.400;11.092;2023-05-29T16:25:07;29.30;23.40
3548;DHT22;1788;49.400;11.092;2023-05-29T16:27:33;29.30;23.40
3548;DHT22;1788;49.400;11.092;2023-05-29T16:30:01;29.20;23.50
3548;DHT22;1788;49.400;11.092;2023-05-29T16:32:29;29.10;23.50
3548;DHT22;1788;49.400;11.092;2023-05-29T16:34:55;29.00;23.60
3548;DHT22;1788;49.400;11.092;2023-05-29T16:37:22;28.90;24.20
3548;DHT22;1788;49.400;11.092;2023-05-29T16:39:49;28.70;23.90